sensor_id;sensor_type;location;lat;lon;timestamp;pressure;altitude;pressure_sealevel;temperature;humidity
72959;BME280;60008;50.826;6.896;2023-03-26T00:02:33;100231.88;;;9.55;100.00
72959;BME280;60008;50.826;6.896;2023-03-26T00:05:18;100227.25;;;9.49;100.00
72959;BME280;60008;50.826;6.896;2023-03-26T00:08:04;100228.59;;;9.45;100.00
72959;BME280;60008;50.826;6.896;2023-03-26T00:10:52;100238.66;;;9.33;100.00
72959;BME280;60008;50.826;6.896;2023-03-26T00:13:38;100233.56;;;9.24;100.00
72959;BME280;60008;50.826;6.896;2023-03-26T00:16:26;100239.16;;;9.21;100.00
72959;BME280;60008;50.826;6.896;2023-03-26T00:19:11;100232.88;;;9.14;100.00
72959;BME280;60008;50.826;6.896;2023-03-26T00:21:57;100236.66;;;9.11;100.00
72959;BME280;60008;50.826;6.896;2023-03-26T00:24:42;100227.56;;;9.06;100.00
72959;BME280;60008;50.826;6.896;2023-03-26T00:27:29;100230.19;;;8.97;100.00
72959;BME280;60008;50.826;6.896;2023-03-26T00:30:15;100235.66;;;8.88;100.00
72959;BME280;60008;50.826;6.896;2023-03-26T00:33:01;100224.38;;;8.86;100.00
72959;BME280;60008;50.826;6.896;2023-03-26T00:35:51;100225.22;;;8.78;100.00
72959;BME280;60008;50.826;6.896;2023-03-26T00:38:38;100225.91;;;8.80;100.00
72959;BME280;60008;50.826;6.896;2023-03-26T00:41:24;100217.13;;;8.72;100.00
72959;BME280;60008;50.826;6.896;2023-03-26T00:44:11;100215.44;;;8.63;100.00
72959;BME280;60008;50.826;6.896;2023-03-26T00:46:57;100211.28;;;8.60;100.00
72959;BME280;60008;50.826;6.896;2023-03-26T00:49:42;100210.34;;;8.69;100.00
72959;BME280;60008;50.826;6.896;2023-03-26T00:52:30;100214.59;;;8.62;100.00
72959;BME280;60008;50.826;6.896;2023-03-26T00:55:15;100211.63;;;8.57;100.00
72959;BME280;60008;50.826;6.896;2023-03-26T00:58:00;100203.66;;;8.49;100.00
72959;BME280;60008;50.826;6.896;2023-03-26T01:00:52;100199.19;;;8.42;100.00
72959;BME280;60008;50.826;6.896;2023-03-26T01:03:42;100197.34;;;8.34;100.00
72959;BME280;60008;50.826;6.896;2023-03-26T01:06:45;100189.38;;;8.26;100.00
72959;BME280;60008;50.826;6.896;2023-03-26T01:09:36;100184.88;;;8.18;100.00
72959;BME280;60008;50.826;6.896;2023-03-26T01:12:28;100179.25;;;8.13;100.00
72959;BME280;60008;50.826;6.896;2023-03-26T01:15:15;100176.28;;;8.16;100.00
72959;BME280;60008;50.826;6.896;2023-03-26T01:18:01;100177.22;;;8.07;100.00
72959;BME280;60008;50.826;6.896;2023-03-26T01:20:49;100168.53;;;8.15;100.00
72959;BME280;60008;50.826;6.896;2023-03-26T01:23:46;100167.41;;;8.17;100.00
72959;BME280;60008;50.826;6.896;2023-03-26T01:26:42;100171.00;;;8.16;100.00
72959;BME280;60008;50.826;6.896;2023-03-26T01:29:52;100169.34;;;8.15;100.00
72959;BME280;60008;50.826;6.896;2023-03-26T01:32:50;100169.03;;;8.18;100.00
72959;BME280;60008;50.826;6.896;2023-03-26T01:35:44;100157.50;;;8.19;100.00
72959;BME280;60008;50.826;6.896;2023-03-26T01:41:44;100148.19;;;8.41;100.00
72959;BME280;60008;50.826;6.896;2023-03-26T01:44:54;100145.72;;;8.31;100.00
72959;BME280;60008;50.826;6.896;2023-03-26T01:47:42;100140.63;;;8.54;100.00
72959;BME280;60008;50.826;6.896;2023-03-26T01:50:27;100137.03;;;8.63;100.00
72959;BME280;60008;50.826;6.896;2023-03-26T01:53:13;100133.38;;;8.64;100.00
72959;BME280;60008;50.826;6.896;2023-03-26T01:56:21;100130.56;;;8.58;100.00
72959;BME280;60008;50.826;6.896;2023-03-26T02:02:27;100124.97;;;8.61;100.00
72959;BME280;60008;50.826;6.896;2023-03-26T02:05:20;100116.22;;;8.60;100.00
72959;BME280;60008;50.826;6.896;2023-03-26T02:08:15;100115.56;;;8.66;100.00
72959;BME280;60008;50.826;6.896;2023-03-26T02:11:07;100109.47;;;8.74;100.00
72959;BME280;60008;50.826;6.896;2023-03-26T02:13:56;100111.44;;;8.80;100.00
72959;BME280;60008;50.826;6.896;2023-03-26T02:16:42;100098.06;;;8.81;100.00
72959;BME280;60008;50.826;6.896;2023-03-26T02:19:30;100087.34;;;8.83;100.00
72959;BME280;60008;50.826;6.896;2023-03-26T02:22:16;100082.53;;;8.86;100.00
72959;BME280;60008;50.826;6.896;2023-03-26T02:25:01;100080.72;;;8.79;100.00
72959;BME280;60008;50.826;6.896;2023-03-26T02:27:46;100074.47;;;8.88;100.00
72959;BME280;60008;50.826;6.896;2023-03-26T02:30:32;100069.16;;;8.88;100.00
72959;BME280;60008;50.826;6.896;2023-03-26T02:33:17;100062.22;;;8.87;100.00
72959;BME280;60008;50.826;6.896;2023-03-26T02:36:03;100060.22;;;8.89;100.00
72959;BME280;60008;50.826;6.896;2023-03-26T02:38:49;100060.22;;;8.97;100.00
72959;BME280;60008;50.826;6.896;2023-03-26T02:41:34;100057.13;;;8.93;100.00
72959;BME280;60008;50.826;6.896;2023-03-26T02:44:19;100050.81;;;8.86;100.00
72959;BME280;60008;50.826;6.896;2023-03-26T02:47:04;100047.19;;;8.87;100.00
72959;BME280;60008;50.826;6.896;2023-03-26T02:49:50;100049.03;;;8.71;100.00
72959;BME280;60008;50.826;6.896;2023-03-26T02:52:35;100051.66;;;8.79;100.00
72959;BME280;60008;50.826;6.896;2023-03-26T02:55:20;100042.25;;;8.76;100.00
72959;BME280;60008;50.826;6.896;2023-03-26T02:58:04;100036.00;;;8.77;100.00
72959;BME280;60008;50.826;6.896;2023-03-26T03:00:51;100030.03;;;8.75;100.00
72959;BME280;60008;50.826;6.896;2023-03-26T03:03:39;100031.50;;;8.70;100.00
72959;BME280;60008;50.826;6.896;2023-03-26T03:06:24;100030.19;;;8.74;100.00
72959;BME280;60008;50.826;6.896;2023-03-26T03:09:10;100025.56;;;8.68;100.00
72959;BME280;60008;50.826;6.896;2023-03-26T03:11:56;100022.09;;;8.67;100.00
72959;BME280;60008;50.826;6.896;2023-03-26T03:14:41;100019.66;;;8.66;100.00
72959;BME280;60008;50.826;6.896;2023-03-26T03:17:25;100010.22;;;8.63;100.00
72959;BME280;60008;50.826;6.896;2023-03-26T03:20:11;100004.63;;;8.66;100.00
72959;BME280;60008;50.826;6.896;2023-03-26T03:22:57;100006.44;;;8.66;100.00
72959;BME280;60008;50.826;6.896;2023-03-26T03:25:42;100000.31;;;8.65;100.00
72959;BME280;60008;50.826;6.896;2023-03-26T03:28:27;99997.03;;;8.63;100.00
72959;BME280;60008;50.826;6.896;2023-03-26T03:31:12;100000.50;;;8.64;100.00
72959;BME280;60008;50.826;6.896;2023-03-26T03:33:57;99989.09;;;8.63;100.00
72959;BME280;60008;50.826;6.896;2023-03-26T03:36:42;99988.94;;;8.65;100.00
72959;BME280;60008;50.826;6.896;2023-03-26T03:39:31;99984.78;;;8.70;100.00
72959;BME280;60008;50.826;6.896;2023-03-26T03:42:17;99976.22;;;8.68;100.00
72959;BME280;60008;50.826;6.896;2023-03-26T03:45:03;99973.56;;;8.68;100.00
72959;BME280;60008;50.826;6.896;2023-03-26T03:47:50;99973.25;;;8.63;100.00
72959;BME280;60008;50.826;6.896;2023-03-26T03:50:35;99974.91;;;8.56;100.00
72959;BME280;60008;50.826;6.896;2023-03-26T03:53:20;99960.91;;;8.56;100.00
72959;BME280;60008;50.826;6.896;2023-03-26T03:56:06;99956.78;;;8.45;100.00
72959;BME280;60008;50.826;6.896;2023-03-26T03:58:54;99954.78;;;8.47;100.00
72959;BME280;60008;50.826;6.896;2023-03-26T04:01:39;99945.06;;;8.40;100.00
72959;BME280;60008;50.826;6.896;2023-03-26T04:04:26;99946.69;;;8.32;100.00
72959;BME280;60008;50.826;6.896;2023-03-26T04:07:12;99943.06;;;8.25;100.00
72959;BME280;60008;50.826;6.896;2023-03-26T04:09:59;99950.47;;;8.22;100.00
72959;BME280;60008;50.826;6.896;2023-03-26T04:12:45;99943.69;;;8.19;100.00
72959;BME280;60008;50.826;6.896;2023-03-26T04:15:30;99938.25;;;8.21;100.00
72959;BME280;60008;50.826;6.896;2023-03-26T04:18:15;99935.13;;;8.17;100.00
72959;BME280;60008;50.826;6.896;2023-03-26T04:21:00;99925.22;;;8.19;100.00
72959;BME280;60008;50.826;6.896;2023-03-26T04:23:46;99934.13;;;8.10;100.00
72959;BME280;60008;50.826;6.896;2023-03-26T04:26:31;99922.41;;;8.13;100.00
72959;BME280;60008;50.826;6.896;2023-03-26T04:29:17;99917.50;;;8.18;100.00
72959;BME280;60008;50.826;6.896;2023-03-26T04:32:10;99907.59;;;8.20;100.00
72959;BME280;60008;50.826;6.896;2023-03-26T04:34:56;99908.41;;;8.20;100.00
72959;BME280;60008;50.826;6.896;2023-03-26T04:37:44;99909.41;;;8.27;100.00
72959;BME280;60008;50.826;6.896;2023-03-26T04:40:30;99898.50;;;8.22;100.00
72959;BME280;60008;50.826;6.896;2023-03-26T04:43:18;99901.16;;;8.22;100.00
72959;BME280;60008;50.826;6.896;2023-03-26T04:46:03;99894.72;;;8.25;100.00
72959;BME280;60008;50.826;6.896;2023-03-26T04:48:49;99889.44;;;8.25;100.00
72959;BME280;60008;50.826;6.896;2023-03-26T04:51:37;99889.75;;;8.22;100.00
72959;BME280;60008;50.826;6.896;2023-03-26T04:54:22;99878.38;;;8.13;100.00
72959;BME280;60008;50.826;6.896;2023-03-26T04:57:20;99873.28;;;8.12;100.00
72959;BME280;60008;50.826;6.896;2023-03-26T05:00:08;99869.81;;;8.11;100.00
72959;BME280;60008;50.826;6.896;2023-03-26T05:03:00;99866.84;;;8.14;100.00
72959;BME280;60008;50.826;6.896;2023-03-26T05:05:45;99861.25;;;8.09;100.00
72959;BME280;60008;50.826;6.896;2023-03-26T05:08:30;99858.94;;;8.06;100.00
72959;BME280;60008;50.826;6.896;2023-03-26T05:11:15;99863.69;;;8.11;100.00
72959;BME280;60008;50.826;6.896;2023-03-26T05:14:00;99862.22;;;8.16;100.00
72959;BME280;60008;50.826;6.896;2023-03-26T05:16:47;99868.16;;;8.18;100.00
72959;BME280;60008;50.826;6.896;2023-03-26T05:19:32;99876.91;;;8.11;100.00
72959;BME280;60008;50.826;6.896;2023-03-26T05:22:17;99865.16;;;8.21;100.00
72959;BME280;60008;50.826;6.896;2023-03-26T05:25:03;99861.91;;;8.11;100.00
72959;BME280;60008;50.826;6.896;2023-03-26T05:27:48;99860.41;;;8.09;100.00
72959;BME280;60008;50.826;6.896;2023-03-26T05:30:33;99860.91;;;7.88;100.00
72959;BME280;60008;50.826;6.896;2023-03-26T05:33:19;99865.53;;;7.78;100.00
72959;BME280;60008;50.826;6.896;2023-03-26T05:36:08;99863.72;;;7.87;100.00
72959;BME280;60008;50.826;6.896;2023-03-26T05:38:53;99874.91;;;7.97;100.00
72959;BME280;60008;50.826;6.896;2023-03-26T05:41:40;99870.47;;;7.65;100.00
72959;BME280;60008;50.826;6.896;2023-03-26T05:44:25;99860.22;;;7.54;100.00
72959;BME280;60008;50.826;6.896;2023-03-26T05:47:10;99859.06;;;7.56;100.00
72959;BME280;60008;50.826;6.896;2023-03-26T05:49:55;99864.34;;;7.72;100.00
72959;BME280;60008;50.826;6.896;2023-03-26T05:52:40;99854.97;;;7.62;100.00
72959;BME280;60008;50.826;6.896;2023-03-26T05:55:25;99861.91;;;7.79;100.00
72959;BME280;60008;50.826;6.896;2023-03-26T05:58:12;99846.06;;;7.79;100.00
72959;BME280;60008;50.826;6.896;2023-03-26T06:01:03;99834.69;;;7.62;100.00
72959;BME280;60008;50.826;6.896;2023-03-26T06:03:49;99827.75;;;7.53;100.00
72959;BME280;60008;50.826;6.896;2023-03-26T06:06:35;99824.16;;;7.54;100.00
72959;BME280;60008;50.826;6.896;2023-03-26T06:09:20;99826.94;;;7.53;100.00
72959;BME280;60008;50.826;6.896;2023-03-26T06:12:06;99823.66;;;7.75;100.00
72959;BME280;60008;50.826;6.896;2023-03-26T06:14:52;99830.75;;;7.74;100.00
72959;BME280;60008;50.826;6.896;2023-03-26T06:17:36;99825.81;;;7.63;100.00
72959;BME280;60008;50.826;6.896;2023-03-26T06:20:22;99827.63;;;7.71;100.00
72959;BME280;60008;50.826;6.896;2023-03-26T06:23:07;99817.91;;;7.79;100.00
72959;BME280;60008;50.826;6.896;2023-03-26T06:25:51;99813.91;;;7.59;100.00
72959;BME280;60008;50.826;6.896;2023-03-26T06:28:37;99816.03;;;7.48;100.00
72959;BME280;60008;50.826;6.896;2023-03-26T06:31:21;99809.47;;;7.44;100.00
72959;BME280;60008;50.826;6.896;2023-03-26T06:34:06;99809.28;;;7.37;100.00
72959;BME280;60008;50.826;6.896;2023-03-26T06:36:51;99797.44;;;7.33;100.00
72959;BME280;60008;50.826;6.896;2023-03-26T06:39:37;99795.28;;;7.37;100.00
72959;BME280;60008;50.826;6.896;2023-03-26T06:42:22;99790.00;;;7.37;100.00
72959;BME280;60008;50.826;6.896;2023-03-26T06:45:27;99806.66;;;7.61;100.00
72959;BME280;60008;50.826;6.896;2023-03-26T06:48:13;99802.22;;;7.78;100.00
72959;BME280;60008;50.826;6.896;2023-03-26T06:50:57;99810.78;;;7.64;100.00
72959;BME280;60008;50.826;6.896;2023-03-26T06:53:42;99813.09;;;7.59;100.00
72959;BME280;60008;50.826;6.896;2023-03-26T06:56:27;99819.00;;;7.53;100.00
72959;BME280;60008;50.826;6.896;2023-03-26T06:59:12;99807.34;;;7.63;100.00
72959;BME280;60008;50.826;6.896;2023-03-26T07:01:57;99805.03;;;7.68;100.00
72959;BME280;60008;50.826;6.896;2023-03-26T07:04:42;99792.50;;;7.70;100.00
72959;BME280;60008;50.826;6.896;2023-03-26T07:07:27;99792.81;;;7.75;100.00
72959;BME280;60008;50.826;6.896;2023-03-26T07:10:13;99789.34;;;7.75;100.00
72959;BME280;60008;50.826;6.896;2023-03-26T07:12:58;99788.19;;;7.77;100.00
72959;BME280;60008;50.826;6.896;2023-03-26T07:15:43;99781.78;;;7.48;100.00
72959;BME280;60008;50.826;6.896;2023-03-26T07:18:28;99783.94;;;7.60;100.00
72959;BME280;60008;50.826;6.896;2023-03-26T07:21:13;99773.53;;;7.59;100.00
72959;BME280;60008;50.826;6.896;2023-03-26T07:23:59;99772.38;;;7.29;100.00
72959;BME280;60008;50.826;6.896;2023-03-26T07:29:36;99758.38;;;7.37;100.00
72959;BME280;60008;50.826;6.896;2023-03-26T07:32:28;99757.72;;;7.51;100.00
72959;BME280;60008;50.826;6.896;2023-03-26T07:35:21;99760.03;;;7.46;100.00
72959;BME280;60008;50.826;6.896;2023-03-26T07:41:44;99745.69;;;7.40;100.00
72959;BME280;60008;50.826;6.896;2023-03-26T07:44:42;99744.03;;;7.39;100.00
72959;BME280;60008;50.826;6.896;2023-03-26T07:47:33;99741.75;;;7.60;100.00
72959;BME280;60008;50.826;6.896;2023-03-26T07:50:21;99734.69;;;7.61;100.00
72959;BME280;60008;50.826;6.896;2023-03-26T07:53:06;99738.94;;;7.46;100.00
72959;BME280;60008;50.826;6.896;2023-03-26T07:59:08;99719.84;;;7.44;100.00
72959;BME280;60008;50.826;6.896;2023-03-26T08:05:05;99721.81;;;7.50;100.00
72959;BME280;60008;50.826;6.896;2023-03-26T08:11:19;99721.97;;;7.32;100.00
72959;BME280;60008;50.826;6.896;2023-03-26T08:14:19;99720.00;;;7.34;100.00
72959;BME280;60008;50.826;6.896;2023-03-26T08:17:21;99714.72;;;7.42;100.00
72959;BME280;60008;50.826;6.896;2023-03-26T08:23:30;99716.72;;;7.32;100.00
72959;BME280;60008;50.826;6.896;2023-03-26T08:29:42;99713.25;;;7.40;100.00
72959;BME280;60008;50.826;6.896;2023-03-26T08:32:33;99706.31;;;7.55;100.00
72959;BME280;60008;50.826;6.896;2023-03-26T08:35:18;99709.63;;;7.41;100.00
72959;BME280;60008;50.826;6.896;2023-03-26T08:38:03;99705.84;;;7.43;100.00
72959;BME280;60008;50.826;6.896;2023-03-26T08:45:17;99707.81;;;7.41;100.00
72959;BME280;60008;50.826;6.896;2023-03-26T09:00:20;99679.28;;;7.45;100.00
72959;BME280;60008;50.826;6.896;2023-03-26T09:09:54;99666.00;;;7.30;100.00
72959;BME280;60008;50.826;6.896;2023-03-26T09:13:10;99651.00;;;7.31;100.00
72959;BME280;60008;50.826;6.896;2023-03-26T09:19:57;99635.00;;;7.32;100.00
72959;BME280;60008;50.826;6.896;2023-03-26T09:22:58;99622.50;;;7.18;100.00
72959;BME280;60008;50.826;6.896;2023-03-26T09:25:56;99615.28;;;7.28;100.00
72959;BME280;60008;50.826;6.896;2023-03-26T09:32:23;99590.06;;;7.34;100.00
72959;BME280;60008;50.826;6.896;2023-03-26T09:38:44;99584.09;;;7.40;100.00
72959;BME280;60008;50.826;6.896;2023-03-26T09:41:51;99588.88;;;7.44;100.00
72959;BME280;60008;50.826;6.896;2023-03-26T09:48:27;99584.13;;;7.78;100.00
72959;BME280;60008;50.826;6.896;2023-03-26T09:55:01;99566.28;;;7.89;100.00
72959;BME280;60008;50.826;6.896;2023-03-26T10:04:03;99519.31;;;8.97;100.00
72959;BME280;60008;50.826;6.896;2023-03-26T10:10:25;99508.94;;;8.96;100.00
72959;BME280;60008;50.826;6.896;2023-03-26T10:13:27;99516.19;;;8.79;100.00
72959;BME280;60008;50.826;6.896;2023-03-26T10:16:45;99519.41;;;8.29;100.00
72959;BME280;60008;50.826;6.896;2023-03-26T10:19:44;99522.97;;;8.59;100.00
72959;BME280;60008;50.826;6.896;2023-03-26T10:22:42;99515.16;;;8.20;100.00
72959;BME280;60008;50.826;6.896;2023-03-26T10:25:50;99513.44;;;8.05;100.00
72959;BME280;60008;50.826;6.896;2023-03-26T10:29:02;99526.63;;;8.35;100.00
72959;BME280;60008;50.826;6.896;2023-03-26T10:35:01;99515.47;;;8.48;100.00
72959;BME280;60008;50.826;6.896;2023-03-26T10:40:57;99511.41;;;8.37;100.00
72959;BME280;60008;50.826;6.896;2023-03-26T10:43:58;99496.81;;;8.50;100.00
72959;BME280;60008;50.826;6.896;2023-03-26T10:53:24;99490.09;;;8.62;100.00
72959;BME280;60008;50.826;6.896;2023-03-26T10:56:21;99488.44;;;8.98;100.00
72959;BME280;60008;50.826;6.896;2023-03-26T10:59:12;99476.31;;;8.89;100.00
72959;BME280;60008;50.826;6.896;2023-03-26T11:02:18;99474.88;;;9.01;100.00
72959;BME280;60008;50.826;6.896;2023-03-26T11:05:32;99471.47;;;8.92;100.00
72959;BME280;60008;50.826;6.896;2023-03-26T11:08:43;99474.78;;;9.09;100.00
72959;BME280;60008;50.826;6.896;2023-03-26T11:11:36;99461.75;;;9.08;100.00
72959;BME280;60008;50.826;6.896;2023-03-26T11:17:54;99470.13;;;8.96;100.00
72959;BME280;60008;50.826;6.896;2023-03-26T11:20:47;99467.50;;;8.96;100.00
72959;BME280;60008;50.826;6.896;2023-03-26T11:23:36;99464.66;;;8.98;100.00
72959;BME280;60008;50.826;6.896;2023-03-26T11:26:45;99466.66;;;9.11;100.00
72959;BME280;60008;50.826;6.896;2023-03-26T11:32:44;99474.03;;;9.01;100.00
72959;BME280;60008;50.826;6.896;2023-03-26T11:35:34;99465.00;;;8.95;100.00
72959;BME280;60008;50.826;6.896;2023-03-26T11:38:25;99466.75;;;8.88;100.00
72959;BME280;60008;50.826;6.896;2023-03-26T11:41:20;99463.38;;;8.79;100.00
72959;BME280;60008;50.826;6.896;2023-03-26T11:44:26;99459.47;;;8.90;100.00
72959;BME280;60008;50.826;6.896;2023-03-26T11:47:17;99467.50;;;9.26;100.00
72959;BME280;60008;50.826;6.896;2023-03-26T11:50:06;99469.47;;;8.94;100.00
72959;BME280;60008;50.826;6.896;2023-03-26T11:53:09;99433.69;;;8.77;100.00
72959;BME280;60008;50.826;6.896;2023-03-26T11:56:14;99438.75;;;8.64;100.00
72959;BME280;60008;50.826;6.896;2023-03-26T11:59:10;99431.34;;;8.22;100.00
72959;BME280;60008;50.826;6.896;2023-03-26T12:04:51;99430.59;;;8.14;100.00
72959;BME280;60008;50.826;6.896;2023-03-26T12:07:49;99441.53;;;8.48;100.00
72959;BME280;60008;50.826;6.896;2023-03-26T12:10:37;99433.94;;;8.68;100.00
72959;BME280;60008;50.826;6.896;2023-03-26T12:13:27;99430.53;;;8.45;100.00
72959;BME280;60008;50.826;6.896;2023-03-26T12:16:15;99432.94;;;8.83;100.00
72959;BME280;60008;50.826;6.896;2023-03-26T12:19:16;99435.03;;;9.17;100.00
72959;BME280;60008;50.826;6.896;2023-03-26T12:22:02;99425.91;;;9.20;100.00
72959;BME280;60008;50.826;6.896;2023-03-26T12:24:59;99432.91;;;9.42;100.00
72959;BME280;60008;50.826;6.896;2023-03-26T12:27:50;99434.25;;;9.52;100.00
72959;BME280;60008;50.826;6.896;2023-03-26T12:30:37;99440.31;;;9.68;100.00
72959;BME280;60008;50.826;6.896;2023-03-26T12:33:26;99431.19;;;9.34;100.00
72959;BME280;60008;50.826;6.896;2023-03-26T12:36:18;99437.47;;;9.48;100.00
72959;BME280;60008;50.826;6.896;2023-03-26T12:39:25;99431.09;;;9.28;100.00
72959;BME280;60008;50.826;6.896;2023-03-26T12:42:32;99445.91;;;9.58;100.00
72959;BME280;60008;50.826;6.896;2023-03-26T12:45:41;99437.00;;;9.80;100.00
72959;BME280;60008;50.826;6.896;2023-03-26T12:48:27;99445.50;;;9.76;100.00
72959;BME280;60008;50.826;6.896;2023-03-26T12:51:24;99446.38;;;9.62;100.00
72959;BME280;60008;50.826;6.896;2023-03-26T12:54:20;99442.00;;;9.54;100.00
72959;BME280;60008;50.826;6.896;2023-03-26T12:57:22;99445.38;;;9.84;100.00
72959;BME280;60008;50.826;6.896;2023-03-26T13:00:24;99445.31;;;9.77;100.00
72959;BME280;60008;50.826;6.896;2023-03-26T13:03:28;99450.91;;;9.68;100.00
72959;BME280;60008;50.826;6.896;2023-03-26T13:06:24;99450.75;;;9.54;100.00
72959;BME280;60008;50.826;6.896;2023-03-26T13:15:34;99465.59;;;9.70;100.00
72959;BME280;60008;50.826;6.896;2023-03-26T13:18:42;99453.50;;;9.82;100.00
72959;BME280;60008;50.826;6.896;2023-03-26T13:21:56;99452.75;;;9.67;100.00
72959;BME280;60008;50.826;6.896;2023-03-26T13:24:52;99460.06;;;9.50;100.00
72959;BME280;60008;50.826;6.896;2023-03-26T13:31:50;99465.53;;;9.49;100.00
72959;BME280;60008;50.826;6.896;2023-03-26T13:34:25;99469.19;;;9.48;100.00
72959;BME280;60008;50.826;6.896;2023-03-26T13:37:29;99466.72;;;9.61;100.00
72959;BME280;60008;50.826;6.896;2023-03-26T13:40:29;99469.97;;;9.63;100.00
72959;BME280;60008;50.826;6.896;2023-03-26T13:43:31;99471.03;;;9.83;100.00
72959;BME280;60008;50.826;6.896;2023-03-26T13:46:41;99474.53;;;10.05;100.00
72959;BME280;60008;50.826;6.896;2023-03-26T13:49:33;99472.38;;;10.30;100.00
72959;BME280;60008;50.826;6.896;2023-03-26T13:52:33;99460.84;;;10.01;100.00
72959;BME280;60008;50.826;6.896;2023-03-26T13:55:36;99466.25;;;9.93;100.00
72959;BME280;60008;50.826;6.896;2023-03-26T13:58:37;99468.44;;;9.90;100.00
72959;BME280;60008;50.826;6.896;2023-03-26T14:01:35;99464.84;;;9.76;100.00
72959;BME280;60008;50.826;6.896;2023-03-26T14:04:35;99471.03;;;9.83;100.00
72959;BME280;60008;50.826;6.896;2023-03-26T14:07:39;99479.19;;;9.67;100.00
72959;BME280;60008;50.826;6.896;2023-03-26T14:10:29;99482.00;;;9.66;100.00
72959;BME280;60008;50.826;6.896;2023-03-26T14:16:22;99508.13;;;9.39;100.00
72959;BME280;60008;50.826;6.896;2023-03-26T14:22:49;99522.91;;;9.05;100.00
72959;BME280;60008;50.826;6.896;2023-03-26T14:32:08;99538.91;;;9.76;100.00
72959;BME280;60008;50.826;6.896;2023-03-26T14:41:49;99521.63;;;9.95;100.00
72959;BME280;60008;50.826;6.896;2023-03-26T14:54:12;99533.09;;;9.66;100.00
72959;BME280;60008;50.826;6.896;2023-03-26T14:57:07;99526.47;;;9.55;100.00
72959;BME280;60008;50.826;6.896;2023-03-26T15:00:30;99532.22;;;9.59;100.00
72959;BME280;60008;50.826;6.896;2023-03-26T15:06:37;99540.13;;;9.74;100.00
72959;BME280;60008;50.826;6.896;2023-03-26T15:16:28;99557.19;;;9.42;100.00
72959;BME280;60008;50.826;6.896;2023-03-26T15:19:46;99555.34;;;9.28;100.00
72959;BME280;60008;50.826;6.896;2023-03-26T15:26:40;99564.53;;;9.90;100.00
72959;BME280;60008;50.826;6.896;2023-03-26T15:32:26;99566.38;;;9.46;100.00
72959;BME280;60008;50.826;6.896;2023-03-26T15:42:02;99580.97;;;9.13;100.00
72959;BME280;60008;50.826;6.896;2023-03-26T15:44:58;99588.19;;;9.33;100.00
72959;BME280;60008;50.826;6.896;2023-03-26T16:06:19;99614.31;;;9.14;100.00
72959;BME280;60008;50.826;6.896;2023-03-26T16:09:27;99619.50;;;9.07;100.00
72959;BME280;60008;50.826;6.896;2023-03-26T16:12:31;99624.09;;;8.90;100.00
72959;BME280;60008;50.826;6.896;2023-03-26T16:15:28;99633.25;;;8.80;100.00
72959;BME280;60008;50.826;6.896;2023-03-26T16:18:28;99645.06;;;8.69;100.00
72959;BME280;60008;50.826;6.896;2023-03-26T16:24:26;99664.00;;;8.50;100.00
72959;BME280;60008;50.826;6.896;2023-03-26T16:30:01;99686.69;;;8.59;100.00
72959;BME280;60008;50.826;6.896;2023-03-26T16:32:53;99693.72;;;8.44;100.00
72959;BME280;60008;50.826;6.896;2023-03-26T16:36:01;99699.00;;;8.44;100.00
72959;BME280;60008;50.826;6.896;2023-03-26T16:38:53;99700.16;;;8.42;100.00
72959;BME280;60008;50.826;6.896;2023-03-26T16:44:32;99715.53;;;8.38;100.00
72959;BME280;60008;50.826;6.896;2023-03-26T16:47:33;99721.78;;;8.37;100.00
72959;BME280;60008;50.826;6.896;2023-03-26T16:50:43;99728.22;;;8.34;100.00
72959;BME280;60008;50.826;6.896;2023-03-26T16:59:48;99737.00;;;8.19;100.00
72959;BME280;60008;50.826;6.896;2023-03-26T17:06:11;99753.19;;;8.16;100.00
72959;BME280;60008;50.826;6.896;2023-03-26T17:09:38;99760.25;;;8.15;100.00
72959;BME280;60008;50.826;6.896;2023-03-26T17:13:27;99779.25;;;8.11;100.00
72959;BME280;60008;50.826;6.896;2023-03-26T17:16:20;99786.00;;;8.13;100.00
72959;BME280;60008;50.826;6.896;2023-03-26T17:25:33;99807.97;;;8.06;100.00
72959;BME280;60008;50.826;6.896;2023-03-26T17:28:26;99823.63;;;7.99;100.00
72959;BME280;60008;50.826;6.896;2023-03-26T17:31:38;99830.25;;;8.03;100.00
72959;BME280;60008;50.826;6.896;2023-03-26T17:40:29;99855.63;;;7.88;100.00
72959;BME280;60008;50.826;6.896;2023-03-26T17:43:41;99866.16;;;7.80;100.00
72959;BME280;60008;50.826;6.896;2023-03-26T17:46:35;99866.53;;;7.77;100.00
72959;BME280;60008;50.826;6.896;2023-03-26T17:49:26;99873.59;;;7.76;100.00
72959;BME280;60008;50.826;6.896;2023-03-26T17:52:18;99882.16;;;7.62;100.00
72959;BME280;60008;50.826;6.896;2023-03-26T17:55:07;99888.41;;;7.61;100.00
72959;BME280;60008;50.826;6.896;2023-03-26T17:58:04;99900.63;;;7.70;100.00
72959;BME280;60008;50.826;6.896;2023-03-26T18:00:57;99910.84;;;7.73;100.00
72959;BME280;60008;50.826;6.896;2023-03-26T18:03:51;99923.38;;;7.71;100.00
72959;BME280;60008;50.826;6.896;2023-03-26T18:07:06;99932.59;;;7.75;100.00
72959;BME280;60008;50.826;6.896;2023-03-26T18:14:02;99943.63;;;7.55;100.00
72959;BME280;60008;50.826;6.896;2023-03-26T18:16:50;99952.50;;;7.54;100.00
72959;BME280;60008;50.826;6.896;2023-03-26T18:19:51;99950.34;;;7.41;100.00
72959;BME280;60008;50.826;6.896;2023-03-26T18:22:37;99964.16;;;7.43;100.00
72959;BME280;60008;50.826;6.896;2023-03-26T18:25:29;99973.75;;;7.52;100.00
72959;BME280;60008;50.826;6.896;2023-03-26T18:28:17;99986.16;;;7.60;100.00
72959;BME280;60008;50.826;6.896;2023-03-26T18:34:11;99998.22;;;7.37;100.00
72959;BME280;60008;50.826;6.896;2023-03-26T18:37:29;100004.97;;;7.31;100.00
72959;BME280;60008;50.826;6.896;2023-03-26T18:40:17;100009.13;;;7.34;100.00
72959;BME280;60008;50.826;6.896;2023-03-26T18:43:04;100005.72;;;7.15;100.00
72959;BME280;60008;50.826;6.896;2023-03-26T18:45:50;100021.22;;;7.18;100.00
72959;BME280;60008;50.826;6.896;2023-03-26T18:48:38;100022.09;;;7.27;100.00
72959;BME280;60008;50.826;6.896;2023-03-26T18:51:26;100024.06;;;7.25;100.00